Meath Environmental Platform

Observations for Trim Market St

Time AQI Temp °C Hum % Pres Pa CO μg/m³ H₂S μg/m³ NO μg/m³ NO₂ μg/m³ O₃ μg/m³ SO₂ μg/m³ PM1 μg/m³ PM2.5 μg/m³ PM10 μg/m³
Saturday 22 August 2026
03:19 2 13.4 66 57,444 0.38 0 3.27 6.73 55.31 0 2.14 3.72 5.58
03:18 2 13.4 66 57,439 0.36 0 3 6.34 56.67 0 2.14 3.23 6.23
03:17 2 13.4 66 57,441 0.37 0 2.62 6.13 55.04 0 1.43 2.74 4.29
03:16 2 13.4 66 57,438 0.36 0 2.71 5.84 56.4 0 2.14 3.23 5.58
03:15 2 13.4 66 57,431 0.35 0 2.51 6.04 54.83 0 0.71 3.22 5.58
03:14 2 13.4 66 57,429 0.35 0 2.34 5.94 55.82 0 1.43 3.71 5.58
03:13 2 13.4 66 57,420 0.37 0 2.34 5.89 55.13 0 2.14 3.71 5.59
03:12 2 13.4 67 57,411 0.37 0 2.38 6.33 59.47 0 2.14 3.71 6.24
03:11 2 13.4 67 57,405 0.38 0 2.32 6.13 55.11 0 1.43 4.2 6.24
03:10 2 13.4 67 57,407 0.39 0 2.67 6.39 54.83 0 1.43 3.71 5.59
03:09 2 13.4 67 57,407 0.38 0 3.03 6.03 56.52 0 2.14 3.71 6.24
03:06 2 13.3 67 57,403 0.39 0 3.67 6.18 54.76 0 1.43 3.21 4.94
03:05 2 13.3 67 57,397 0.38 0 3.67 6.23 53.95 0 1.43 3.2 6.24
03:03 2 13.3 67 57,395 0.39 0 2.68 6.28 54.37 0 2.14 3.7 6.24
03:00 2 13.3 67 57,392 0.39 0 2.67 6.08 54.32 0 1.43 3.69 5.6
02:51 2 13.2 68 57,343 0.48 0 4.45 8.06 51.83 0 1.43 3.66 5.61
02:50 2 13.1 68 57,331 0.59 0 4.53 9.21 48.15 0 2.85 4.63 6.89
02:49 2 13.1 68 57,326 0.46 0 3.94 7.73 47.16 0 2.85 5.11 7.53
02:48 2 13.1 68 57,319 0.41 0 3.55 6.61 52.24 0 0.71 2.18 4.97
02:47 2 13.1 68 57,308 0.43 0 3.28 8.93 43.32 0 1.43 2.66 4.33